sensor_id;sensor_type;location;lat;lon;timestamp;P1;durP1;ratioP1;P2;durP2;ratioP2
7215;SDS011;3649;48.798;9.798;2023-02-01T00:01:13;4.00;;;3.60;;
7215;SDS011;3649;48.798;9.798;2023-02-01T00:03:40;5.83;;;3.50;;
7215;SDS011;3649;48.798;9.798;2023-02-01T00:06:07;3.87;;;3.23;;
7215;SDS011;3649;48.798;9.798;2023-02-01T00:08:34;3.90;;;3.60;;
7215;SDS011;3649;48.798;9.798;2023-02-01T00:11:02;4.53;;;4.10;;
7215;SDS011;3649;48.798;9.798;2023-02-01T00:13:31;3.37;;;3.03;;
7215;SDS011;3649;48.798;9.798;2023-02-01T00:16:09;3.30;;;3.10;;
7215;SDS011;3649;48.798;9.798;2023-02-01T00:18:38;3.30;;;3.10;;
7215;SDS011;3649;48.798;9.798;2023-02-01T00:21:05;3.50;;;3.20;;
7215;SDS011;3649;48.798;9.798;2023-02-01T00:23:35;3.77;;;2.87;;
7215;SDS011;3649;48.798;9.798;2023-02-01T00:26:03;2.60;;;2.40;;
7215;SDS011;3649;48.798;9.798;2023-02-01T00:28:31;3.60;;;3.30;;
7215;SDS011;3649;48.798;9.798;2023-02-01T00:31:02;2.77;;;2.57;;
7215;SDS011;3649;48.798;9.798;2023-02-01T00:33:30;3.70;;;3.07;;
7215;SDS011;3649;48.798;9.798;2023-02-01T00:35:58;2.90;;;2.70;;
7215;SDS011;3649;48.798;9.798;2023-02-01T00:38:27;2.70;;;2.50;;
7215;SDS011;3649;48.798;9.798;2023-02-01T00:40:54;3.00;;;2.70;;
7215;SDS011;3649;48.798;9.798;2023-02-01T00:43:28;3.07;;;2.80;;
7215;SDS011;3649;48.798;9.798;2023-02-01T00:45:54;4.40;;;2.70;;
7215;SDS011;3649;48.798;9.798;2023-02-01T00:48:21;3.17;;;2.97;;
7215;SDS011;3649;48.798;9.798;2023-02-01T00:50:48;3.17;;;2.90;;
7215;SDS011;3649;48.798;9.798;2023-02-01T00:53:14;3.03;;;2.83;;
7215;SDS011;3649;48.798;9.798;2023-02-01T00:55:44;3.10;;;2.90;;
7215;SDS011;3649;48.798;9.798;2023-02-01T00:58:11;3.57;;;3.27;;
7215;SDS011;3649;48.798;9.798;2023-02-01T01:00:38;2.57;;;2.47;;
7215;SDS011;3649;48.798;9.798;2023-02-01T01:03:05;2.80;;;2.60;;
7215;SDS011;3649;48.798;9.798;2023-02-01T01:05:45;2.90;;;2.70;;
7215;SDS011;3649;48.798;9.798;2023-02-01T01:08:15;3.23;;;2.57;;
7215;SDS011;3649;48.798;9.798;2023-02-01T01:10:42;2.57;;;2.37;;
7215;SDS011;3649;48.798;9.798;2023-02-01T01:13:09;3.10;;;2.80;;
7215;SDS011;3649;48.798;9.798;2023-02-01T01:15:36;2.93;;;2.73;;
7215;SDS011;3649;48.798;9.798;2023-02-01T01:18:05;3.00;;;2.80;;
7215;SDS011;3649;48.798;9.798;2023-02-01T01:20:35;2.57;;;2.47;;
7215;SDS011;3649;48.798;9.798;2023-02-01T01:23:04;2.63;;;2.43;;
7215;SDS011;3649;48.798;9.798;2023-02-01T01:25:31;2.50;;;2.40;;
7215;SDS011;3649;48.798;9.798;2023-02-01T01:27:58;2.50;;;2.30;;
7215;SDS011;3649;48.798;9.798;2023-02-01T01:30:24;2.50;;;2.40;;
7215;SDS011;3649;48.798;9.798;2023-02-01T01:32:51;3.47;;;2.90;;
7215;SDS011;3649;48.798;9.798;2023-02-01T01:35:18;2.77;;;2.57;;
7215;SDS011;3649;48.798;9.798;2023-02-01T01:37:45;2.90;;;2.60;;
7215;SDS011;3649;48.798;9.798;2023-02-01T01:40:12;3.37;;;2.83;;
7215;SDS011;3649;48.798;9.798;2023-02-01T01:42:40;2.63;;;2.43;;
7215;SDS011;3649;48.798;9.798;2023-02-01T01:45:18;2.77;;;2.57;;
7215;SDS011;3649;48.798;9.798;2023-02-01T01:47:49;3.57;;;2.43;;
7215;SDS011;3649;48.798;9.798;2023-02-01T01:50:19;2.03;;;1.90;;
7215;SDS011;3649;48.798;9.798;2023-02-01T01:52:50;2.30;;;2.20;;
7215;SDS011;3649;48.798;9.798;2023-02-01T01:55:19;2.80;;;2.60;;
7215;SDS011;3649;48.798;9.798;2023-02-01T01:57:50;2.60;;;2.43;;
7215;SDS011;3649;48.798;9.798;2023-02-01T02:00:21;2.60;;;2.40;;
7215;SDS011;3649;48.798;9.798;2023-02-01T02:02:51;2.17;;;2.07;;
7215;SDS011;3649;48.798;9.798;2023-02-01T02:05:22;4.70;;;2.80;;
7215;SDS011;3649;48.798;9.798;2023-02-01T02:07:49;2.30;;;2.17;;
7215;SDS011;3649;48.798;9.798;2023-02-01T02:10:19;2.63;;;2.43;;
7215;SDS011;3649;48.798;9.798;2023-02-01T02:12:47;2.20;;;2.10;;
7215;SDS011;3649;48.798;9.798;2023-02-01T02:15:15;2.30;;;2.10;;
7215;SDS011;3649;48.798;9.798;2023-02-01T02:17:55;2.60;;;2.50;;
7215;SDS011;3649;48.798;9.798;2023-02-01T02:34:40;2.60;;;2.40;;
7215;SDS011;3649;48.798;9.798;2023-02-01T02:37:26;3.53;;;2.37;;
7215;SDS011;3649;48.798;9.798;2023-02-01T02:40:19;3.70;;;2.27;;
7215;SDS011;3649;48.798;9.798;2023-02-01T02:42:58;2.30;;;2.20;;
7215;SDS011;3649;48.798;9.798;2023-02-01T02:46:00;3.00;;;2.20;;
7215;SDS011;3649;48.798;9.798;2023-02-01T02:54:33;2.43;;;2.20;;
7215;SDS011;3649;48.798;9.798;2023-02-01T02:57:35;2.20;;;2.10;;
7215;SDS011;3649;48.798;9.798;2023-02-01T03:00:22;2.20;;;2.10;;
7215;SDS011;3649;48.798;9.798;2023-02-01T03:03:13;2.87;;;2.57;;
7215;SDS011;3649;48.798;9.798;2023-02-01T03:05:58;2.40;;;2.30;;
7215;SDS011;3649;48.798;9.798;2023-02-01T03:08:26;2.30;;;2.20;;
7215;SDS011;3649;48.798;9.798;2023-02-01T03:18:55;2.20;;;2.10;;
7215;SDS011;3649;48.798;9.798;2023-02-01T03:21:26;2.00;;;1.90;;
7215;SDS011;3649;48.798;9.798;2023-02-01T03:24:00;2.23;;;2.07;;
7215;SDS011;3649;48.798;9.798;2023-02-01T03:26:30;2.70;;;2.50;;
7215;SDS011;3649;48.798;9.798;2023-02-01T03:29:08;2.23;;;1.80;;
7215;SDS011;3649;48.798;9.798;2023-02-01T03:31:44;2.50;;;2.30;;
7215;SDS011;3649;48.798;9.798;2023-02-01T03:34:12;2.00;;;1.90;;
7215;SDS011;3649;48.798;9.798;2023-02-01T03:36:44;2.10;;;2.00;;
7215;SDS011;3649;48.798;9.798;2023-02-01T03:39:25;2.23;;;2.13;;
7215;SDS011;3649;48.798;9.798;2023-02-01T03:42:04;2.13;;;2.03;;
7215;SDS011;3649;48.798;9.798;2023-02-01T03:47:23;2.00;;;1.90;;
7215;SDS011;3649;48.798;9.798;2023-02-01T03:49:55;2.40;;;2.20;;
7215;SDS011;3649;48.798;9.798;2023-02-01T03:52:30;2.20;;;2.10;;
7215;SDS011;3649;48.798;9.798;2023-02-01T03:55:09;2.30;;;2.10;;
7215;SDS011;3649;48.798;9.798;2023-02-01T03:57:37;1.73;;;1.70;;
7215;SDS011;3649;48.798;9.798;2023-02-01T04:00:17;2.40;;;2.30;;
7215;SDS011;3649;48.798;9.798;2023-02-01T04:02:48;2.33;;;2.23;;
7215;SDS011;3649;48.798;9.798;2023-02-01T04:05:15;2.20;;;2.10;;
7215;SDS011;3649;48.798;9.798;2023-02-01T04:07:42;2.17;;;1.97;;
7215;SDS011;3649;48.798;9.798;2023-02-01T04:10:09;2.00;;;1.90;;
7215;SDS011;3649;48.798;9.798;2023-02-01T04:12:36;2.10;;;2.00;;
7215;SDS011;3649;48.798;9.798;2023-02-01T04:15:04;2.40;;;2.30;;
7215;SDS011;3649;48.798;9.798;2023-02-01T04:17:31;2.33;;;2.20;;
7215;SDS011;3649;48.798;9.798;2023-02-01T04:19:58;2.47;;;2.30;;
7215;SDS011;3649;48.798;9.798;2023-02-01T04:22:24;2.17;;;2.07;;
7215;SDS011;3649;48.798;9.798;2023-02-01T04:24:51;2.10;;;2.00;;
7215;SDS011;3649;48.798;9.798;2023-02-01T04:27:18;2.37;;;2.27;;
7215;SDS011;3649;48.798;9.798;2023-02-01T04:29:45;2.27;;;2.17;;
7215;SDS011;3649;48.798;9.798;2023-02-01T04:32:11;2.43;;;2.23;;
7215;SDS011;3649;48.798;9.798;2023-02-01T04:34:38;2.60;;;2.40;;
7215;SDS011;3649;48.798;9.798;2023-02-01T04:37:05;2.20;;;2.10;;
7215;SDS011;3649;48.798;9.798;2023-02-01T04:39:32;2.23;;;2.13;;
7215;SDS011;3649;48.798;9.798;2023-02-01T04:41:58;2.73;;;2.53;;
7215;SDS011;3649;48.798;9.798;2023-02-01T04:44:25;2.10;;;2.00;;
7215;SDS011;3649;48.798;9.798;2023-02-01T04:46:52;2.03;;;1.93;;
7215;SDS011;3649;48.798;9.798;2023-02-01T04:49:19;2.00;;;1.90;;
7215;SDS011;3649;48.798;9.798;2023-02-01T04:51:47;2.03;;;1.93;;
7215;SDS011;3649;48.798;9.798;2023-02-01T04:54:14;2.17;;;2.07;;
7215;SDS011;3649;48.798;9.798;2023-02-01T04:56:41;2.50;;;2.00;;
7215;SDS011;3649;48.798;9.798;2023-02-01T04:59:09;2.77;;;2.57;;
7215;SDS011;3649;48.798;9.798;2023-02-01T05:01:37;2.30;;;2.20;;
7215;SDS011;3649;48.798;9.798;2023-02-01T05:04:04;4.20;;;2.30;;
7215;SDS011;3649;48.798;9.798;2023-02-01T05:06:31;2.20;;;2.10;;
7215;SDS011;3649;48.798;9.798;2023-02-01T05:08:58;2.20;;;2.10;;
7215;SDS011;3649;48.798;9.798;2023-02-01T05:11:25;2.50;;;2.40;;
7215;SDS011;3649;48.798;9.798;2023-02-01T05:14:10;1.87;;;1.77;;
7215;SDS011;3649;48.798;9.798;2023-02-01T05:16:37;2.40;;;2.30;;
7215;SDS011;3649;48.798;9.798;2023-02-01T05:19:04;2.20;;;2.10;;
7215;SDS011;3649;48.798;9.798;2023-02-01T05:21:31;2.27;;;2.17;;
7215;SDS011;3649;48.798;9.798;2023-02-01T05:23:57;2.30;;;2.10;;
7215;SDS011;3649;48.798;9.798;2023-02-01T05:26:42;2.50;;;2.40;;
7215;SDS011;3649;48.798;9.798;2023-02-01T05:29:09;5.30;;;2.13;;
7215;SDS011;3649;48.798;9.798;2023-02-01T05:31:36;1.70;;;1.60;;
7215;SDS011;3649;48.798;9.798;2023-02-01T05:34:04;2.30;;;2.20;;
7215;SDS011;3649;48.798;9.798;2023-02-01T05:36:31;2.17;;;2.00;;
7215;SDS011;3649;48.798;9.798;2023-02-01T05:38:58;2.10;;;2.00;;
7215;SDS011;3649;48.798;9.798;2023-02-01T05:41:25;2.27;;;2.17;;
7215;SDS011;3649;48.798;9.798;2023-02-01T05:43:52;2.07;;;1.90;;
7215;SDS011;3649;48.798;9.798;2023-02-01T05:46:19;2.47;;;2.27;;
7215;SDS011;3649;48.798;9.798;2023-02-01T05:48:45;2.93;;;2.47;;
7215;SDS011;3649;48.798;9.798;2023-02-01T05:51:12;2.00;;;1.90;;
7215;SDS011;3649;48.798;9.798;2023-02-01T05:53:39;2.67;;;2.43;;
7215;SDS011;3649;48.798;9.798;2023-02-01T05:56:06;1.80;;;1.80;;
7215;SDS011;3649;48.798;9.798;2023-02-01T05:58:33;2.43;;;2.33;;
7215;SDS011;3649;48.798;9.798;2023-02-01T06:01:01;2.43;;;2.33;;
7215;SDS011;3649;48.798;9.798;2023-02-01T06:03:29;1.97;;;1.87;;
7215;SDS011;3649;48.798;9.798;2023-02-01T06:05:56;2.57;;;2.37;;
7215;SDS011;3649;48.798;9.798;2023-02-01T06:08:23;3.10;;;1.97;;
7215;SDS011;3649;48.798;9.798;2023-02-01T06:11:05;2.13;;;2.03;;
7215;SDS011;3649;48.798;9.798;2023-02-01T06:13:33;2.10;;;2.00;;
7215;SDS011;3649;48.798;9.798;2023-02-01T06:16:00;2.43;;;2.23;;
7215;SDS011;3649;48.798;9.798;2023-02-01T06:18:29;2.23;;;2.13;;
7215;SDS011;3649;48.798;9.798;2023-02-01T06:20:57;2.20;;;2.00;;
7215;SDS011;3649;48.798;9.798;2023-02-01T06:23:28;2.47;;;2.10;;
7215;SDS011;3649;48.798;9.798;2023-02-01T06:26:00;2.60;;;2.40;;
7215;SDS011;3649;48.798;9.798;2023-02-01T06:28:29;3.77;;;2.40;;
7215;SDS011;3649;48.798;9.798;2023-02-01T06:30:57;2.03;;;1.90;;
7215;SDS011;3649;48.798;9.798;2023-02-01T06:33:24;2.27;;;2.07;;
7215;SDS011;3649;48.798;9.798;2023-02-01T06:35:58;2.17;;;2.07;;
7215;SDS011;3649;48.798;9.798;2023-02-01T06:38:26;2.47;;;2.27;;
7215;SDS011;3649;48.798;9.798;2023-02-01T06:40:54;2.23;;;2.03;;
7215;SDS011;3649;48.798;9.798;2023-02-01T06:43:22;2.10;;;2.00;;
7215;SDS011;3649;48.798;9.798;2023-02-01T06:45:50;2.30;;;2.10;;
7215;SDS011;3649;48.798;9.798;2023-02-01T06:48:17;4.43;;;2.30;;
7215;SDS011;3649;48.798;9.798;2023-02-01T06:50:45;2.37;;;2.23;;
7215;SDS011;3649;48.798;9.798;2023-02-01T06:53:11;3.17;;;2.43;;
7215;SDS011;3649;48.798;9.798;2023-02-01T06:55:38;1.97;;;1.87;;
7215;SDS011;3649;48.798;9.798;2023-02-01T06:58:05;2.10;;;2.00;;
7215;SDS011;3649;48.798;9.798;2023-02-01T07:00:31;2.87;;;2.00;;
7215;SDS011;3649;48.798;9.798;2023-02-01T07:02:58;2.40;;;2.20;;
7215;SDS011;3649;48.798;9.798;2023-02-01T07:05:26;2.77;;;2.10;;
7215;SDS011;3649;48.798;9.798;2023-02-01T07:07:52;3.13;;;1.93;;
7215;SDS011;3649;48.798;9.798;2023-02-01T07:10:19;2.13;;;2.03;;
7215;SDS011;3649;48.798;9.798;2023-02-01T07:12:46;2.17;;;2.07;;
7215;SDS011;3649;48.798;9.798;2023-02-01T07:15:13;2.87;;;2.57;;
7215;SDS011;3649;48.798;9.798;2023-02-01T07:17:40;4.43;;;2.43;;
7215;SDS011;3649;48.798;9.798;2023-02-01T07:20:08;4.03;;;2.17;;
7215;SDS011;3649;48.798;9.798;2023-02-01T07:22:35;2.03;;;1.93;;
7215;SDS011;3649;48.798;9.798;2023-02-01T07:25:02;3.00;;;2.33;;
7215;SDS011;3649;48.798;9.798;2023-02-01T07:27:33;2.30;;;2.10;;
7215;SDS011;3649;48.798;9.798;2023-02-01T07:30:01;2.70;;;2.37;;
7215;SDS011;3649;48.798;9.798;2023-02-01T07:32:29;2.20;;;2.03;;
7215;SDS011;3649;48.798;9.798;2023-02-01T07:34:58;2.37;;;2.20;;
7215;SDS011;3649;48.798;9.798;2023-02-01T07:37:25;3.53;;;2.00;;
7215;SDS011;3649;48.798;9.798;2023-02-01T07:40:08;2.80;;;2.23;;
7215;SDS011;3649;48.798;9.798;2023-02-01T07:42:36;2.20;;;2.10;;
7215;SDS011;3649;48.798;9.798;2023-02-01T07:45:03;2.60;;;2.30;;
7215;SDS011;3649;48.798;9.798;2023-02-01T07:47:45;2.10;;;1.90;;
7215;SDS011;3649;48.798;9.798;2023-02-01T07:50:12;2.10;;;2.00;;
7215;SDS011;3649;48.798;9.798;2023-02-01T07:52:39;2.67;;;2.30;;
7215;SDS011;3649;48.798;9.798;2023-02-01T07:55:07;3.17;;;2.23;;
7215;SDS011;3649;48.798;9.798;2023-02-01T07:57:34;2.27;;;2.10;;
7215;SDS011;3649;48.798;9.798;2023-02-01T08:00:01;2.73;;;2.53;;
7215;SDS011;3649;48.798;9.798;2023-02-01T08:02:51;2.67;;;2.47;;
7215;SDS011;3649;48.798;9.798;2023-02-01T08:05:18;3.73;;;2.67;;
7215;SDS011;3649;48.798;9.798;2023-02-01T08:07:48;2.77;;;2.33;;
7215;SDS011;3649;48.798;9.798;2023-02-01T08:10:16;2.23;;;2.13;;
7215;SDS011;3649;48.798;9.798;2023-02-01T08:12:44;3.90;;;2.10;;
7215;SDS011;3649;48.798;9.798;2023-02-01T08:15:18;2.80;;;2.60;;
7215;SDS011;3649;48.798;9.798;2023-02-01T08:17:48;5.93;;;2.53;;
7215;SDS011;3649;48.798;9.798;2023-02-01T08:20:16;2.83;;;2.63;;
7215;SDS011;3649;48.798;9.798;2023-02-01T08:22:44;3.20;;;2.57;;
7215;SDS011;3649;48.798;9.798;2023-02-01T08:25:11;2.03;;;1.93;;
7215;SDS011;3649;48.798;9.798;2023-02-01T08:27:38;3.23;;;2.30;;
7215;SDS011;3649;48.798;9.798;2023-02-01T08:30:05;3.93;;;3.20;;
7215;SDS011;3649;48.798;9.798;2023-02-01T08:32:34;2.40;;;2.10;;
7215;SDS011;3649;48.798;9.798;2023-02-01T08:35:02;2.27;;;2.13;;
7215;SDS011;3649;48.798;9.798;2023-02-01T08:37:30;3.97;;;2.70;;
7215;SDS011;3649;48.798;9.798;2023-02-01T08:39:56;5.07;;;2.60;;
7215;SDS011;3649;48.798;9.798;2023-02-01T08:42:23;4.33;;;2.50;;
7215;SDS011;3649;48.798;9.798;2023-02-01T08:45:09;3.17;;;2.90;;
7215;SDS011;3649;48.798;9.798;2023-02-01T08:47:36;2.80;;;2.60;;
7215;SDS011;3649;48.798;9.798;2023-02-01T08:50:03;2.37;;;2.17;;
7215;SDS011;3649;48.798;9.798;2023-02-01T08:52:30;2.97;;;2.60;;
7215;SDS011;3649;48.798;9.798;2023-02-01T08:55:03;3.73;;;2.40;;
7215;SDS011;3649;48.798;9.798;2023-02-01T08:57:32;3.77;;;2.50;;
7215;SDS011;3649;48.798;9.798;2023-02-01T09:00:00;3.50;;;2.50;;
7215;SDS011;3649;48.798;9.798;2023-02-01T09:02:27;4.60;;;3.10;;
7215;SDS011;3649;48.798;9.798;2023-02-01T09:04:55;2.93;;;2.33;;
7215;SDS011;3649;48.798;9.798;2023-02-01T09:07:22;3.23;;;2.60;;
7215;SDS011;3649;48.798;9.798;2023-02-01T09:09:49;4.27;;;2.60;;
7215;SDS011;3649;48.798;9.798;2023-02-01T09:12:16;4.43;;;2.67;;
7215;SDS011;3649;48.798;9.798;2023-02-01T09:14:43;2.83;;;2.53;;
7215;SDS011;3649;48.798;9.798;2023-02-01T09:17:10;2.77;;;2.47;;
7215;SDS011;3649;48.798;9.798;2023-02-01T09:19:39;3.57;;;2.50;;
7215;SDS011;3649;48.798;9.798;2023-02-01T09:22:08;4.73;;;2.37;;
7215;SDS011;3649;48.798;9.798;2023-02-01T09:24:35;3.77;;;2.60;;
7215;SDS011;3649;48.798;9.798;2023-02-01T09:27:02;4.40;;;2.67;;
7215;SDS011;3649;48.798;9.798;2023-02-01T09:29:32;6.03;;;2.43;;
7215;SDS011;3649;48.798;9.798;2023-02-01T09:31:58;5.83;;;2.90;;
7215;SDS011;3649;48.798;9.798;2023-02-01T09:34:29;9.93;;;2.60;;
7215;SDS011;3649;48.798;9.798;2023-02-01T09:36:56;3.27;;;2.50;;
7215;SDS011;3649;48.798;9.798;2023-02-01T09:39:23;3.13;;;2.27;;
7215;SDS011;3649;48.798;9.798;2023-02-01T09:44:54;3.83;;;2.47;;
7215;SDS011;3649;48.798;9.798;2023-02-01T09:47:34;4.20;;;2.43;;
7215;SDS011;3649;48.798;9.798;2023-02-01T09:50:13;7.77;;;2.53;;
7215;SDS011;3649;48.798;9.798;2023-02-01T09:53:03;3.00;;;2.17;;
7215;SDS011;3649;48.798;9.798;2023-02-01T10:00:52;6.03;;;2.60;;
7215;SDS011;3649;48.798;9.798;2023-02-01T10:03:26;4.33;;;2.70;;
7215;SDS011;3649;48.798;9.798;2023-02-01T10:11:50;6.47;;;2.50;;
7215;SDS011;3649;48.798;9.798;2023-02-01T10:19:27;2.80;;;2.60;;
7215;SDS011;3649;48.798;9.798;2023-02-01T10:27:19;6.73;;;2.90;;
7215;SDS011;3649;48.798;9.798;2023-02-01T10:29:54;3.90;;;2.50;;
7215;SDS011;3649;48.798;9.798;2023-02-01T10:32:33;4.30;;;2.90;;
7215;SDS011;3649;48.798;9.798;2023-02-01T10:35:02;6.47;;;2.60;;
7215;SDS011;3649;48.798;9.798;2023-02-01T10:37:42;9.83;;;2.80;;
7215;SDS011;3649;48.798;9.798;2023-02-01T10:40:18;3.93;;;2.77;;
7215;SDS011;3649;48.798;9.798;2023-02-01T10:42:51;4.07;;;2.40;;
7215;SDS011;3649;48.798;9.798;2023-02-01T10:45:25;4.77;;;2.57;;
7215;SDS011;3649;48.798;9.798;2023-02-01T10:47:54;2.83;;;2.53;;
7215;SDS011;3649;48.798;9.798;2023-02-01T10:50:33;8.90;;;2.80;;
7215;SDS011;3649;48.798;9.798;2023-02-01T10:53:15;2.87;;;2.20;;
7215;SDS011;3649;48.798;9.798;2023-02-01T10:55:47;5.47;;;2.50;;
7215;SDS011;3649;48.798;9.798;2023-02-01T10:58:29;4.47;;;2.60;;
7215;SDS011;3649;48.798;9.798;2023-02-01T11:01:02;3.83;;;2.07;;
7215;SDS011;3649;48.798;9.798;2023-02-01T11:03:40;4.20;;;2.40;;
7215;SDS011;3649;48.798;9.798;2023-02-01T11:06:31;3.50;;;2.47;;
7215;SDS011;3649;48.798;9.798;2023-02-01T11:09:01;3.67;;;2.50;;
7215;SDS011;3649;48.798;9.798;2023-02-01T11:16:50;3.03;;;2.43;;
7215;SDS011;3649;48.798;9.798;2023-02-01T11:19:21;7.57;;;3.07;;
7215;SDS011;3649;48.798;9.798;2023-02-01T11:21:51;4.00;;;2.33;;
7215;SDS011;3649;48.798;9.798;2023-02-01T11:26:54;8.57;;;3.70;;
7215;SDS011;3649;48.798;9.798;2023-02-01T11:29:23;10.90;;;4.80;;
7215;SDS011;3649;48.798;9.798;2023-02-01T11:31:56;8.07;;;2.80;;
7215;SDS011;3649;48.798;9.798;2023-02-01T11:34:25;3.70;;;2.80;;
7215;SDS011;3649;48.798;9.798;2023-02-01T11:37:01;4.90;;;2.67;;
7215;SDS011;3649;48.798;9.798;2023-02-01T11:39:33;8.13;;;3.10;;
7215;SDS011;3649;48.798;9.798;2023-02-01T11:42:18;5.53;;;2.97;;
7215;SDS011;3649;48.798;9.798;2023-02-01T11:44:46;8.17;;;2.80;;
7215;SDS011;3649;48.798;9.798;2023-02-01T11:47:21;8.43;;;2.70;;
7215;SDS011;3649;48.798;9.798;2023-02-01T11:50:08;5.60;;;2.77;;
7215;SDS011;3649;48.798;9.798;2023-02-01T12:03:50;11.13;;;3.10;;
7215;SDS011;3649;48.798;9.798;2023-02-01T12:09:05;5.93;;;2.77;;
7215;SDS011;3649;48.798;9.798;2023-02-01T12:23:27;6.77;;;2.53;;
7215;SDS011;3649;48.798;9.798;2023-02-01T12:29:07;7.80;;;2.77;;
7215;SDS011;3649;48.798;9.798;2023-02-01T12:43:55;6.97;;;3.07;;
7215;SDS011;3649;48.798;9.798;2023-02-01T12:46:06;6.13;;;2.83;;
7215;SDS011;3649;48.798;9.798;2023-02-01T12:48:54;8.30;;;3.27;;
7215;SDS011;3649;48.798;9.798;2023-02-01T12:51:28;9.27;;;3.00;;
7215;SDS011;3649;48.798;9.798;2023-02-01T12:56:57;6.73;;;2.70;;
7215;SDS011;3649;48.798;9.798;2023-02-01T12:59:39;5.73;;;2.63;;
7215;SDS011;3649;48.798;9.798;2023-02-01T13:05:11;7.03;;;3.00;;
7215;SDS011;3649;48.798;9.798;2023-02-01T13:07:56;8.40;;;3.17;;
7215;SDS011;3649;48.798;9.798;2023-02-01T13:16:30;11.47;;;3.60;;
7215;SDS011;3649;48.798;9.798;2023-02-01T13:22:05;9.43;;;2.67;;
7215;SDS011;3649;48.798;9.798;2023-02-01T13:24:42;12.03;;;5.03;;
7215;SDS011;3649;48.798;9.798;2023-02-01T13:27:13;7.93;;;3.37;;
7215;SDS011;3649;48.798;9.798;2023-02-01T13:29:45;10.23;;;3.47;;
7215;SDS011;3649;48.798;9.798;2023-02-01T13:32:48;11.60;;;3.50;;
7215;SDS011;3649;48.798;9.798;2023-02-01T13:41:27;8.43;;;3.63;;
7215;SDS011;3649;48.798;9.798;2023-02-01T13:44:01;9.20;;;3.03;;
7215;SDS011;3649;48.798;9.798;2023-02-01T13:46:41;16.47;;;3.23;;
7215;SDS011;3649;48.798;9.798;2023-02-01T13:49:22;5.97;;;2.43;;
7215;SDS011;3649;48.798;9.798;2023-02-01T13:51:56;7.60;;;2.83;;
7215;SDS011;3649;48.798;9.798;2023-02-01T13:54:28;8.50;;;3.20;;
7215;SDS011;3649;48.798;9.798;2023-02-01T13:57:06;5.80;;;2.47;;
7215;SDS011;3649;48.798;9.798;2023-02-01T14:00:06;9.07;;;3.10;;
7215;SDS011;3649;48.798;9.798;2023-02-01T14:13:27;11.73;;;3.43;;
7215;SDS011;3649;48.798;9.798;2023-02-01T14:16:11;10.23;;;3.30;;
7215;SDS011;3649;48.798;9.798;2023-02-01T14:21:18;7.67;;;4.53;;
7215;SDS011;3649;48.798;9.798;2023-02-01T14:26:43;11.07;;;4.37;;
7215;SDS011;3649;48.798;9.798;2023-02-01T14:32:00;14.30;;;3.07;;
7215;SDS011;3649;48.798;9.798;2023-02-01T14:47:45;9.27;;;3.30;;
7215;SDS011;3649;48.798;9.798;2023-02-01T15:04:19;11.50;;;4.17;;
7215;SDS011;3649;48.798;9.798;2023-02-01T15:06:52;6.73;;;3.23;;
7215;SDS011;3649;48.798;9.798;2023-02-01T15:09:27;10.40;;;3.90;;
7215;SDS011;3649;48.798;9.798;2023-02-01T15:14:30;6.03;;;3.37;;
7215;SDS011;3649;48.798;9.798;2023-02-01T15:16:58;9.43;;;3.50;;
7215;SDS011;3649;48.798;9.798;2023-02-01T15:19:27;7.97;;;3.23;;
7215;SDS011;3649;48.798;9.798;2023-02-01T15:21:56;7.87;;;3.50;;
7215;SDS011;3649;48.798;9.798;2023-02-01T15:24:25;10.43;;;3.10;;
7215;SDS011;3649;48.798;9.798;2023-02-01T15:26:54;7.93;;;2.77;;
7215;SDS011;3649;48.798;9.798;2023-02-01T15:29:23;5.43;;;3.03;;
7215;SDS011;3649;48.798;9.798;2023-02-01T15:31:58;4.43;;;2.33;;
7215;SDS011;3649;48.798;9.798;2023-02-01T15:37:28;8.67;;;3.03;;
7215;SDS011;3649;48.798;9.798;2023-02-01T15:40:03;9.53;;;2.90;;
7215;SDS011;3649;48.798;9.798;2023-02-01T15:42:54;10.23;;;3.17;;
7215;SDS011;3649;48.798;9.798;2023-02-01T15:45:25;10.30;;;3.30;;
7215;SDS011;3649;48.798;9.798;2023-02-01T15:47:54;10.63;;;2.90;;
7215;SDS011;3649;48.798;9.798;2023-02-01T15:50:23;7.33;;;2.90;;
7215;SDS011;3649;48.798;9.798;2023-02-01T15:52:52;9.13;;;3.20;;
7215;SDS011;3649;48.798;9.798;2023-02-01T15:58:42;8.90;;;2.77;;
7215;SDS011;3649;48.798;9.798;2023-02-01T16:01:02;11.80;;;2.90;;
7215;SDS011;3649;48.798;9.798;2023-02-01T16:03:44;8.87;;;2.30;;
7215;SDS011;3649;48.798;9.798;2023-02-01T16:08:51;13.90;;;3.87;;
7215;SDS011;3649;48.798;9.798;2023-02-01T16:11:27;4.80;;;3.00;;
7215;SDS011;3649;48.798;9.798;2023-02-01T16:13:59;5.43;;;3.27;;
7215;SDS011;3649;48.798;9.798;2023-02-01T16:16:27;7.20;;;3.20;;
7215;SDS011;3649;48.798;9.798;2023-02-01T16:18:54;5.37;;;2.87;;
7215;SDS011;3649;48.798;9.798;2023-02-01T16:21:21;7.60;;;2.87;;
7215;SDS011;3649;48.798;9.798;2023-02-01T16:23:49;9.33;;;2.80;;
7215;SDS011;3649;48.798;9.798;2023-02-01T16:26:18;11.37;;;3.60;;
7215;SDS011;3649;48.798;9.798;2023-02-01T16:28:45;7.57;;;3.03;;
7215;SDS011;3649;48.798;9.798;2023-02-01T16:31:14;6.07;;;2.90;;
7215;SDS011;3649;48.798;9.798;2023-02-01T16:33:48;6.17;;;2.80;;
7215;SDS011;3649;48.798;9.798;2023-02-01T16:36:17;7.90;;;3.10;;
7215;SDS011;3649;48.798;9.798;2023-02-01T16:38:44;11.00;;;3.20;;
7215;SDS011;3649;48.798;9.798;2023-02-01T16:41:14;4.13;;;2.70;;
7215;SDS011;3649;48.798;9.798;2023-02-01T16:43:42;8.77;;;3.07;;
7215;SDS011;3649;48.798;9.798;2023-02-01T16:46:12;15.50;;;5.57;;
7215;SDS011;3649;48.798;9.798;2023-02-01T16:48:50;11.60;;;3.63;;
7215;SDS011;3649;48.798;9.798;2023-02-01T16:51:20;7.87;;;3.07;;
7215;SDS011;3649;48.798;9.798;2023-02-01T16:53:47;9.07;;;4.23;;
7215;SDS011;3649;48.798;9.798;2023-02-01T16:56:21;9.80;;;3.30;;
7215;SDS011;3649;48.798;9.798;2023-02-01T16:58:50;8.33;;;3.33;;
7215;SDS011;3649;48.798;9.798;2023-02-01T17:01:17;5.07;;;2.83;;
7215;SDS011;3649;48.798;9.798;2023-02-01T17:03:45;13.77;;;3.40;;
7215;SDS011;3649;48.798;9.798;2023-02-01T17:06:17;7.63;;;3.17;;
7215;SDS011;3649;48.798;9.798;2023-02-01T17:08:47;5.77;;;2.60;;
7215;SDS011;3649;48.798;9.798;2023-02-01T17:11:17;8.37;;;3.33;;
7215;SDS011;3649;48.798;9.798;2023-02-01T17:13:44;9.30;;;2.80;;
7215;SDS011;3649;48.798;9.798;2023-02-01T17:18:51;6.93;;;3.50;;
7215;SDS011;3649;48.798;9.798;2023-02-01T17:21:20;8.23;;;3.20;;
7215;SDS011;3649;48.798;9.798;2023-02-01T17:23:48;9.17;;;2.90;;
7215;SDS011;3649;48.798;9.798;2023-02-01T17:26:14;7.03;;;2.90;;
7215;SDS011;3649;48.798;9.798;2023-02-01T17:28:41;6.20;;;2.53;;
7215;SDS011;3649;48.798;9.798;2023-02-01T17:31:10;7.60;;;2.97;;
7215;SDS011;3649;48.798;9.798;2023-02-01T17:33:42;8.17;;;3.13;;
7215;SDS011;3649;48.798;9.798;2023-02-01T17:36:13;5.13;;;2.93;;
7215;SDS011;3649;48.798;9.798;2023-02-01T17:38:42;7.97;;;2.80;;
7215;SDS011;3649;48.798;9.798;2023-02-01T17:41:19;12.87;;;3.63;;
7215;SDS011;3649;48.798;9.798;2023-02-01T17:43:45;11.10;;;3.23;;
7215;SDS011;3649;48.798;9.798;2023-02-01T17:46:14;6.50;;;3.10;;
7215;SDS011;3649;48.798;9.798;2023-02-01T17:48:43;6.57;;;3.50;;
7215;SDS011;3649;48.798;9.798;2023-02-01T17:51:17;8.50;;;3.03;;
7215;SDS011;3649;48.798;9.798;2023-02-01T17:53:46;7.50;;;2.80;;
7215;SDS011;3649;48.798;9.798;2023-02-01T17:56:13;5.17;;;2.87;;
7215;SDS011;3649;48.798;9.798;2023-02-01T17:58:42;7.77;;;3.40;;
7215;SDS011;3649;48.798;9.798;2023-02-01T18:01:13;10.07;;;2.93;;
7215;SDS011;3649;48.798;9.798;2023-02-01T18:03:44;6.07;;;3.20;;
7215;SDS011;3649;48.798;9.798;2023-02-01T18:06:12;7.33;;;3.30;;
7215;SDS011;3649;48.798;9.798;2023-02-01T18:08:43;12.20;;;4.47;;
7215;SDS011;3649;48.798;9.798;2023-02-01T18:11:14;7.47;;;3.40;;
7215;SDS011;3649;48.798;9.798;2023-02-01T18:13:43;7.63;;;3.03;;
7215;SDS011;3649;48.798;9.798;2023-02-01T18:18:48;10.83;;;4.27;;
7215;SDS011;3649;48.798;9.798;2023-02-01T18:21:16;8.90;;;4.13;;
7215;SDS011;3649;48.798;9.798;2023-02-01T18:23:44;12.17;;;3.73;;
7215;SDS011;3649;48.798;9.798;2023-02-01T18:26:12;7.13;;;3.37;;
7215;SDS011;3649;48.798;9.798;2023-02-01T18:28:40;8.60;;;3.67;;
7215;SDS011;3649;48.798;9.798;2023-02-01T18:31:22;14.03;;;4.77;;
7215;SDS011;3649;48.798;9.798;2023-02-01T18:33:51;11.77;;;4.80;;
7215;SDS011;3649;48.798;9.798;2023-02-01T18:36:20;7.13;;;3.50;;
7215;SDS011;3649;48.798;9.798;2023-02-01T18:38:47;5.57;;;3.80;;
7215;SDS011;3649;48.798;9.798;2023-02-01T18:41:15;9.60;;;3.23;;
7215;SDS011;3649;48.798;9.798;2023-02-01T18:43:46;12.20;;;3.23;;
7215;SDS011;3649;48.798;9.798;2023-02-01T18:46:17;9.20;;;3.43;;